createdAt,value
2023-02-18T00:00:39.725Z,24.85
2023-02-18T00:01:39.805Z,24.86
2023-02-18T00:02:39.950Z,24.86
2023-02-18T00:03:40.057Z,24.86
2023-02-18T00:04:40.013Z,24.86
2023-02-18T00:05:40.092Z,24.87
2023-02-18T00:12:40.596Z,24.86
2023-02-18T00:13:40.640Z,24.87
2023-02-18T00:14:40.720Z,24.87
2023-02-18T00:15:40.816Z,24.86
2023-02-18T00:16:40.874Z,24.86
2023-02-18T00:17:40.962Z,24.86
2023-02-18T00:18:41.049Z,24.86
2023-02-18T00:19:41.102Z,24.86
2023-02-18T00:20:41.130Z,24.86
2023-02-18T00:21:41.225Z,24.85
2023-02-18T00:22:41.297Z,24.85
2023-02-18T00:23:43.784Z,24.86
2023-02-18T00:24:41.552Z,24.86
2023-02-18T00:25:41.612Z,24.85
2023-02-18T00:36:42.402Z,24.83
2023-02-18T00:37:42.480Z,24.83
2023-02-18T00:40:42.670Z,24.83
2023-02-18T00:41:42.762Z,24.83
2023-02-18T00:42:42.795Z,24.84
2023-02-18T00:43:42.848Z,24.84
2023-02-18T00:44:42.949Z,24.83
2023-02-18T00:45:43.022Z,24.83
2023-02-18T00:46:43.132Z,24.83
2023-02-18T00:47:43.171Z,24.82
2023-02-18T00:48:43.223Z,24.83
2023-02-18T00:49:43.273Z,24.82
2023-02-18T00:50:43.384Z,24.81
2023-02-18T00:51:43.425Z,24.82
2023-02-18T00:52:43.519Z,24.82
2023-02-18T00:53:43.588Z,24.82
2023-02-18T00:54:43.652Z,24.82
2023-02-18T00:55:43.734Z,24.81
2023-02-18T00:56:43.812Z,24.81
2023-02-18T00:57:43.860Z,24.81
2023-02-18T00:58:43.987Z,24.81
2023-02-18T00:59:44.094Z,24.81
2023-02-18T01:00:44.070Z,24.81
2023-02-18T01:01:44.228Z,24.80
2023-02-18T01:02:44.183Z,24.81
2023-02-18T01:03:44.266Z,24.80
2023-02-18T01:04:44.394Z,24.81
2023-02-18T01:05:44.420Z,24.80
2023-02-18T01:06:44.482Z,24.80
2023-02-18T01:07:44.567Z,24.80
2023-02-18T01:08:44.622Z,24.79
2023-02-18T01:09:44.665Z,24.79
2023-02-18T01:10:44.747Z,24.79
2023-02-18T01:11:44.827Z,24.78
2023-02-18T01:12:44.929Z,24.79
2023-02-18T01:13:45.002Z,24.79
2023-02-18T01:14:45.063Z,24.79
2023-02-18T01:15:45.170Z,24.78
2023-02-18T01:16:45.233Z,24.78
2023-02-18T01:17:45.332Z,24.78
2023-02-18T01:18:45.370Z,24.78
2023-02-18T01:19:45.459Z,24.79
2023-02-18T01:20:45.567Z,24.77
2023-02-18T01:21:45.691Z,24.78
2023-02-18T01:22:45.709Z,24.78
2023-02-18T01:23:45.763Z,24.77
2023-02-18T01:24:46.530Z,24.78
2023-02-18T01:25:45.903Z,24.79
2023-02-18T01:26:46.022Z,24.78
2023-02-18T01:27:46.134Z,24.77
2023-02-18T01:28:46.149Z,24.77
2023-02-18T01:29:46.237Z,24.77
2023-02-18T01:30:46.305Z,24.77
2023-02-18T01:31:46.521Z,24.77
2023-02-18T01:32:46.483Z,24.77
2023-02-18T01:33:46.571Z,24.77
2023-02-18T01:34:46.701Z,24.76
2023-02-18T01:35:46.743Z,24.76
2023-02-18T01:36:46.804Z,24.75
2023-02-18T01:37:46.906Z,24.77
2023-02-18T01:38:46.981Z,24.77
2023-02-18T01:39:47.075Z,24.76
2023-02-18T01:40:47.112Z,24.76
2023-02-18T01:41:47.201Z,24.76
2023-02-18T01:42:47.276Z,24.76
2023-02-18T01:43:47.316Z,24.75
2023-02-18T01:44:47.421Z,24.76
2023-02-18T01:45:47.486Z,24.75
2023-02-18T01:46:47.709Z,24.76
2023-02-18T01:47:47.643Z,24.76
2023-02-18T01:48:47.758Z,24.76
2023-02-18T01:49:47.803Z,24.76
2023-02-18T01:50:47.915Z,24.75
2023-02-18T01:51:48.175Z,24.76
2023-02-18T01:52:48.089Z,24.75
2023-02-18T01:53:48.158Z,24.75
2023-02-18T01:54:48.187Z,24.75
2023-02-18T01:55:48.297Z,24.76
2023-02-18T01:56:48.459Z,24.76
2023-02-18T01:57:48.425Z,24.76
2023-02-18T01:58:48.496Z,24.76
2023-02-18T01:59:48.572Z,24.76
2023-02-18T02:00:48.665Z,24.76
2023-02-18T02:01:48.823Z,24.75
2023-02-18T02:02:48.836Z,24.75
2023-02-18T02:03:48.900Z,24.75
2023-02-18T02:04:48.976Z,24.75
2023-02-18T02:05:49.063Z,24.75
2023-02-18T02:33:40.522Z,24.74
2023-02-18T02:53:40.514Z,24.71
2023-02-18T02:54:40.550Z,24.71
2023-02-18T02:55:40.529Z,24.71
2023-02-18T04:32:42.627Z,24.70
2023-02-18T04:33:42.650Z,24.70
2023-02-18T04:34:42.656Z,24.69
2023-02-18T04:35:42.715Z,24.70
2023-02-18T04:36:42.716Z,24.69
2023-02-18T04:37:42.744Z,24.69
2023-02-18T04:38:42.787Z,24.69
2023-02-18T04:39:42.832Z,24.69
2023-02-18T04:40:42.903Z,24.69
2023-02-18T04:41:42.911Z,24.69
2023-02-18T04:42:42.921Z,24.69
2023-02-18T04:43:42.972Z,24.69
2023-02-18T04:44:42.981Z,24.69
2023-02-18T04:45:43.046Z,24.70
2023-02-18T04:46:43.081Z,24.69
2023-02-18T04:47:43.160Z,24.69
2023-02-18T04:48:43.199Z,24.69
2023-02-18T04:49:43.289Z,24.69
2023-02-18T04:50:43.295Z,24.69
2023-02-18T04:51:43.333Z,24.70
2023-02-18T04:52:43.425Z,24.69
2023-02-18T04:53:43.471Z,24.69
2023-02-18T04:54:43.510Z,24.69
2023-02-18T04:55:43.558Z,24.69
2023-02-18T04:56:43.583Z,24.69
2023-02-18T04:57:43.679Z,24.69
2023-02-18T04:58:43.700Z,24.69
2023-02-18T04:59:43.767Z,24.69
2023-02-18T05:00:43.817Z,24.69
2023-02-18T05:01:43.884Z,24.69
2023-02-18T05:02:43.925Z,24.69
2023-02-18T05:03:44.024Z,24.69
2023-02-18T05:04:44.043Z,24.69
2023-02-18T05:05:44.063Z,24.68
2023-02-18T05:06:44.099Z,24.68
2023-02-18T05:07:44.114Z,24.68
2023-02-18T05:08:44.189Z,24.69
2023-02-18T05:09:44.234Z,24.69
2023-02-18T05:10:44.238Z,24.68
2023-02-18T05:11:44.916Z,24.68
2023-02-18T05:12:44.333Z,24.68
2023-02-18T05:13:44.363Z,24.68
2023-02-18T05:14:44.379Z,24.68
2023-02-18T05:15:44.452Z,24.68
2023-02-18T05:16:44.420Z,24.68
2023-02-18T05:17:44.456Z,24.68
2023-02-18T05:18:44.489Z,24.68
2023-02-18T05:19:44.492Z,24.68
2023-02-18T05:20:44.517Z,24.68
2023-02-18T05:21:44.528Z,24.68
2023-02-18T05:22:44.568Z,24.67
2023-02-18T05:23:44.611Z,24.68
2023-02-18T05:24:44.612Z,24.68
2023-02-18T05:25:44.670Z,24.67
2023-02-18T05:26:44.684Z,24.68
2023-02-18T05:27:44.692Z,24.67
2023-02-18T05:28:44.771Z,24.68
2023-02-18T05:29:44.787Z,24.69
2023-02-18T05:30:44.915Z,24.68
2023-02-18T05:31:44.959Z,24.68
2023-02-18T05:32:44.897Z,24.68
2023-02-18T05:33:44.985Z,24.68
2023-02-18T05:34:44.984Z,24.67
2023-02-18T05:35:45.050Z,24.67
2023-02-18T05:36:45.067Z,24.68
2023-02-18T05:37:45.102Z,24.67
2023-02-18T05:38:45.151Z,24.68
2023-02-18T05:39:45.189Z,24.67
2023-02-18T05:40:45.231Z,24.67
2023-02-18T05:41:45.234Z,24.68
2023-02-18T05:42:45.275Z,24.67
2023-02-18T05:43:45.306Z,24.67
2023-02-18T05:44:45.392Z,24.68
2023-02-18T05:45:45.446Z,24.67
2023-02-18T05:46:45.526Z,24.67
2023-02-18T05:47:45.533Z,24.68
2023-02-18T05:48:45.618Z,24.67
2023-02-18T05:49:45.640Z,24.67
2023-02-18T05:50:45.716Z,24.67
2023-02-18T05:51:45.766Z,24.67
2023-02-18T05:52:45.797Z,24.67
2023-02-18T05:53:45.833Z,24.68
2023-02-18T05:54:45.907Z,24.67
2023-02-18T05:55:45.957Z,24.67
2023-02-18T05:56:46.021Z,24.68
2023-02-18T05:57:46.064Z,24.67
2023-02-18T05:58:46.092Z,24.66
2023-02-18T05:59:46.185Z,24.67
2023-02-18T06:00:46.181Z,24.67
2023-02-18T06:01:46.256Z,24.67
2023-02-18T06:02:46.379Z,24.66
2023-02-18T06:03:46.322Z,24.66
2023-02-18T06:04:46.367Z,24.66
2023-02-18T06:05:46.473Z,24.65
2023-02-18T06:06:46.489Z,24.67
2023-02-18T06:07:46.469Z,24.66
2023-02-18T06:08:46.508Z,24.66
2023-02-18T06:09:46.663Z,24.65
2023-02-18T06:10:46.600Z,24.66
2023-02-18T06:11:46.654Z,24.66
2023-02-18T06:12:46.637Z,24.66
2023-02-18T06:13:46.656Z,24.66
2023-02-18T06:14:46.690Z,24.66
2023-02-18T06:15:46.780Z,24.67
2023-02-18T06:16:46.760Z,24.67
2023-02-18T06:17:46.834Z,24.67
2023-02-18T06:18:46.922Z,24.67
2023-02-18T06:19:46.885Z,24.66
2023-02-18T06:20:46.937Z,24.66
2023-02-18T06:21:47.004Z,24.67
2023-02-18T06:22:47.092Z,24.68
2023-02-18T06:23:47.117Z,24.66
2023-02-18T06:24:47.162Z,24.67
2023-02-18T06:25:47.187Z,24.67
2023-02-18T06:26:47.227Z,24.67
2023-02-18T06:27:47.286Z,24.67
2023-02-18T06:28:47.348Z,24.67
2023-02-18T06:29:47.431Z,24.67
2023-02-18T06:30:47.369Z,24.67
2023-02-18T06:31:47.528Z,24.66
2023-02-18T06:32:47.440Z,24.66
2023-02-18T06:33:47.428Z,24.67
2023-02-18T06:34:47.485Z,24.68
2023-02-18T06:35:47.505Z,24.67
2023-02-18T06:36:47.529Z,24.67
2023-02-18T06:37:47.547Z,24.68
2023-02-18T06:38:47.620Z,24.67
2023-02-18T06:39:47.634Z,24.68
2023-02-18T06:40:47.684Z,24.68
2023-02-18T06:41:47.776Z,24.68
2023-02-18T06:43:47.804Z,24.68
2023-02-18T06:44:47.840Z,24.67
2023-02-18T06:45:47.887Z,24.67
2023-02-18T06:46:47.947Z,24.68
2023-02-18T06:47:47.974Z,24.68
2023-02-18T06:48:48.005Z,24.68
2023-02-18T06:49:48.049Z,24.68
2023-02-18T06:51:48.156Z,24.68
2023-02-18T06:52:48.201Z,24.68
2023-02-18T06:53:48.237Z,24.68
2023-02-18T06:54:48.311Z,24.68
2023-02-18T06:56:48.428Z,24.69
2023-02-18T06:57:48.459Z,24.69
2023-02-18T06:58:48.529Z,24.70
2023-02-18T06:59:48.568Z,24.69
2023-02-18T07:00:48.654Z,24.70
2023-02-18T07:01:48.659Z,24.69
2023-02-18T07:02:48.755Z,24.70
2023-02-18T07:03:50.284Z,24.70
2023-02-18T07:04:48.856Z,24.70
2023-02-18T07:05:48.940Z,24.70
2023-02-18T07:06:48.988Z,24.70
2023-02-18T07:07:48.990Z,24.70
2023-02-18T07:08:49.039Z,24.70
2023-02-18T07:09:49.067Z,24.70
2023-02-18T07:10:49.100Z,24.71
2023-02-18T07:11:49.155Z,24.71
2023-02-18T07:12:49.202Z,24.71
2023-02-18T07:13:49.264Z,24.71
2023-02-18T07:14:49.278Z,24.71
2023-02-18T07:15:49.320Z,24.72
2023-02-18T07:16:49.336Z,24.74
2023-02-18T07:17:49.364Z,24.73
2023-02-18T07:20:49.477Z,24.74
2023-02-18T08:27:52.579Z,25.23
2023-02-18T08:29:52.657Z,25.25
2023-02-18T08:30:52.745Z,25.27
2023-02-18T08:31:52.829Z,25.27
2023-02-18T08:32:52.739Z,25.29
2023-02-18T08:33:52.791Z,25.30
2023-02-18T08:34:52.870Z,25.31
2023-02-18T08:35:52.867Z,25.32
2023-02-18T08:36:52.913Z,25.33
2023-02-18T08:37:54.510Z,25.34
2023-02-18T08:38:53.005Z,25.35
2023-02-18T08:39:53.009Z,25.37
2023-02-18T08:40:53.058Z,25.38
2023-02-18T08:41:53.053Z,25.39
2023-02-18T08:42:53.133Z,25.40
2023-02-18T08:43:53.127Z,25.41
2023-02-18T08:44:53.144Z,25.42
2023-02-18T08:45:53.238Z,25.43
2023-02-18T08:46:53.201Z,25.44
2023-02-18T08:48:19.261Z,25.46
2023-02-18T08:48:54.247Z,25.46
2023-02-18T08:49:53.218Z,25.47
2023-02-18T08:50:53.231Z,25.48
2023-02-18T08:51:53.204Z,25.48
2023-02-18T08:52:54.018Z,25.50
2023-02-18T08:53:53.165Z,25.52
2023-02-18T08:54:53.170Z,25.53
2023-02-18T08:55:53.129Z,25.55
2023-02-18T08:56:53.145Z,25.54
2023-02-18T08:57:53.122Z,25.54
2023-02-18T08:58:53.133Z,25.54
2023-02-18T08:59:53.139Z,25.55
2023-02-18T09:00:53.112Z,25.54
2023-02-18T09:01:53.106Z,25.53
2023-02-18T09:02:53.113Z,25.55
2023-02-18T09:03:53.177Z,25.56
2023-02-18T09:04:53.137Z,25.57
2023-02-18T09:05:53.186Z,25.58
2023-02-18T09:06:53.230Z,25.59
2023-02-18T09:07:53.198Z,25.60
2023-02-18T09:08:53.219Z,25.61
2023-02-18T09:09:53.263Z,25.62
2023-02-18T09:10:53.274Z,25.65
2023-02-18T09:11:53.319Z,25.66
2023-02-18T09:12:53.353Z,25.67
2023-02-18T09:13:53.332Z,25.67
2023-02-18T09:14:53.362Z,25.67
2023-02-18T09:15:53.383Z,25.66
2023-02-18T09:16:53.408Z,25.65
2023-02-18T09:17:53.414Z,25.66
2023-02-18T09:18:53.462Z,25.67
2023-02-18T09:19:53.502Z,25.67
2023-02-18T09:20:53.534Z,25.66
2023-02-18T09:21:53.543Z,25.65
2023-02-18T09:22:53.534Z,25.63
2023-02-18T09:23:53.571Z,25.63
2023-02-18T09:24:53.623Z,25.63
2023-02-18T09:25:53.618Z,25.63
2023-02-18T09:26:53.631Z,25.63
2023-02-18T09:27:53.635Z,25.63
2023-02-18T09:28:53.669Z,25.62
2023-02-18T09:29:54.493Z,25.61
2023-02-18T09:30:53.733Z,25.60
2023-02-18T09:31:53.860Z,25.60
2023-02-18T09:32:53.757Z,25.60
2023-02-18T09:33:53.770Z,25.59
2023-02-18T09:34:53.818Z,25.59
2023-02-18T09:35:53.839Z,25.59
2023-02-18T09:36:53.884Z,25.58
2023-02-18T09:37:53.877Z,25.58
2023-02-18T09:38:53.918Z,25.59
2023-02-18T09:39:53.920Z,25.59
2023-02-18T09:40:53.992Z,25.61
2023-02-18T09:41:53.993Z,25.63
2023-02-18T09:42:54.001Z,25.65
2023-02-18T09:43:54.048Z,25.66
2023-02-18T09:44:54.062Z,25.67
2023-02-18T09:45:54.086Z,25.69
2023-02-18T09:46:54.117Z,25.70
2023-02-18T09:47:54.119Z,25.70
2023-02-18T09:48:54.149Z,25.71
2023-02-18T09:49:54.204Z,25.71
2023-02-18T09:50:54.232Z,25.72
2023-02-18T09:51:54.229Z,25.73
2023-02-18T09:52:54.265Z,25.73
2023-02-18T09:53:54.256Z,25.73
2023-02-18T09:54:54.277Z,25.74
2023-02-18T09:55:54.271Z,25.75
2023-02-18T09:56:54.296Z,25.74
2023-02-18T09:57:54.325Z,25.75
2023-02-18T09:58:54.353Z,25.75
2023-02-18T09:59:54.364Z,25.76
2023-02-18T10:00:54.401Z,25.77
2023-02-18T10:01:54.518Z,25.77
2023-02-18T10:02:54.429Z,25.78
2023-02-18T10:03:55.800Z,25.78
2023-02-18T10:04:54.494Z,25.79
2023-02-18T10:05:54.497Z,25.80
2023-02-18T10:06:54.535Z,25.79
2023-02-18T10:07:54.568Z,25.79
2023-02-18T10:08:54.543Z,25.80
2023-02-18T10:09:54.598Z,25.81
2023-02-18T10:10:54.540Z,25.81
2023-02-18T10:11:54.591Z,25.82
2023-02-18T10:12:54.604Z,25.81
2023-02-18T10:13:54.623Z,25.82
2023-02-18T10:14:54.622Z,25.81
2023-02-18T10:15:54.709Z,25.82
2023-02-18T10:16:54.641Z,25.82
2023-02-18T10:17:54.671Z,25.83
2023-02-18T10:18:54.664Z,25.84
2023-02-18T10:19:54.704Z,25.84
2023-02-18T10:20:54.720Z,25.84
2023-02-18T10:21:54.722Z,25.85
2023-02-18T10:22:54.733Z,25.85
2023-02-18T10:23:54.778Z,25.86
2023-02-18T10:24:54.780Z,25.86
2023-02-18T10:25:54.772Z,25.86
2023-02-18T10:26:54.767Z,25.87
2023-02-18T10:27:54.793Z,25.87
2023-02-18T10:28:54.801Z,25.86
2023-02-18T10:29:54.831Z,25.87
2023-02-18T10:30:54.875Z,25.87
2023-02-18T10:31:54.994Z,25.85
2023-02-18T10:32:54.877Z,25.85
2023-02-18T10:33:54.879Z,25.85
2023-02-18T10:34:54.889Z,25.85
2023-02-18T10:35:54.885Z,25.84
2023-02-18T10:36:54.926Z,25.84
2023-02-18T10:37:54.963Z,25.85
2023-02-18T10:38:54.969Z,25.85
2023-02-18T10:39:54.977Z,25.85
2023-02-18T10:40:55.060Z,25.85
2023-02-18T10:41:55.022Z,25.84
2023-02-18T10:42:55.023Z,25.85
2023-02-18T10:43:55.046Z,25.85
2023-02-18T10:44:55.047Z,25.84
2023-02-18T10:45:55.049Z,25.85
2023-02-18T10:46:55.074Z,25.85
2023-02-18T10:47:55.086Z,25.86
2023-02-18T10:48:55.078Z,25.88
2023-02-18T10:49:55.117Z,25.88
2023-02-18T10:50:55.133Z,25.90
2023-02-18T10:51:55.122Z,25.88
2023-02-18T10:52:55.148Z,25.88
2023-02-18T10:53:55.157Z,25.88
2023-02-18T10:54:55.139Z,25.88
2023-02-18T10:55:55.186Z,25.89
2023-02-18T10:56:55.202Z,25.89
2023-02-18T10:57:55.256Z,25.89
2023-02-18T10:58:55.234Z,25.88
2023-02-18T10:59:55.278Z,25.88
2023-02-18T11:00:55.261Z,25.87
2023-02-18T11:01:55.328Z,25.87
2023-02-18T11:02:55.304Z,25.85
2023-02-18T11:03:55.378Z,25.86
2023-02-18T11:04:55.296Z,25.85
2023-02-18T11:05:55.302Z,25.85
2023-02-18T11:06:55.342Z,25.86
2023-02-18T11:07:55.330Z,25.84
2023-02-18T11:08:55.350Z,25.85
2023-02-18T11:09:55.371Z,25.84
2023-02-18T11:10:55.387Z,25.85
2023-02-18T11:12:07.785Z,25.85
2023-02-18T11:12:56.387Z,25.84
2023-02-18T11:13:55.397Z,25.84
2023-02-18T11:14:55.381Z,25.83
2023-02-18T11:15:55.404Z,25.81
2023-02-18T11:16:55.405Z,25.82
2023-02-18T11:17:55.382Z,25.81
2023-02-18T11:18:55.348Z,25.81
2023-02-18T11:19:55.334Z,25.82
2023-02-18T11:20:55.354Z,25.82
2023-02-18T11:21:55.329Z,25.82
2023-02-18T11:22:55.313Z,25.82
2023-02-18T11:23:55.294Z,25.82
2023-02-18T11:24:55.293Z,25.82
2023-02-18T11:25:55.265Z,25.81
2023-02-18T11:26:55.259Z,25.81
2023-02-18T11:27:55.244Z,25.82
2023-02-18T11:28:55.229Z,25.82
2023-02-18T11:29:55.214Z,25.82
2023-02-18T11:30:55.213Z,25.81
2023-02-18T11:31:55.352Z,25.81
2023-02-18T11:32:55.224Z,25.82
2023-02-18T11:33:55.207Z,25.82
2023-02-18T11:34:55.217Z,25.83
2023-02-18T11:35:55.169Z,25.84
2023-02-18T11:36:55.225Z,25.84
2023-02-18T11:37:55.187Z,25.85
2023-02-18T11:38:55.229Z,25.85
2023-02-18T11:39:55.220Z,25.84
2023-02-18T11:40:55.270Z,25.84
2023-02-18T11:41:55.268Z,25.84
2023-02-18T11:42:55.230Z,25.85
2023-02-18T11:43:55.299Z,25.86
2023-02-18T11:44:55.286Z,25.86
2023-02-18T11:45:55.285Z,25.86
2023-02-18T11:46:55.350Z,25.87
2023-02-18T11:47:55.350Z,25.86
2023-02-18T11:48:55.377Z,25.86
2023-02-18T11:49:55.414Z,25.87
2023-02-18T11:50:55.390Z,25.86
2023-02-18T11:51:55.386Z,25.87
2023-02-18T11:52:55.402Z,25.87
2023-02-18T11:53:55.442Z,25.88
2023-02-18T11:54:55.449Z,25.86
2023-02-18T11:55:55.459Z,25.87
2023-02-18T11:56:55.469Z,25.88
2023-02-18T11:57:55.488Z,25.88
2023-02-18T11:58:55.519Z,25.88
2023-02-18T11:59:55.495Z,25.89
2023-02-18T12:00:55.536Z,25.89
2023-02-18T12:01:55.586Z,25.89
2023-02-18T12:02:55.539Z,25.89
2023-02-18T12:03:55.543Z,25.88
2023-02-18T12:04:55.648Z,25.89
2023-02-18T12:05:55.611Z,25.88
2023-02-18T12:06:55.631Z,25.89
2023-02-18T12:07:55.648Z,25.89
2023-02-18T12:08:55.645Z,25.89
2023-02-18T12:09:55.628Z,25.89
2023-02-18T12:10:55.695Z,25.90
2023-02-18T12:11:55.757Z,25.89
2023-02-18T12:12:55.706Z,25.89
2023-02-18T12:13:55.732Z,25.90
2023-02-18T12:14:55.748Z,25.91
2023-02-18T12:15:55.766Z,25.91
2023-02-18T12:16:55.771Z,25.91
2023-02-18T12:17:55.817Z,25.92
2023-02-18T12:18:55.788Z,25.91
2023-02-18T12:19:55.801Z,25.91
2023-02-18T12:20:55.835Z,25.91
2023-02-18T12:21:55.836Z,25.91
2023-02-18T12:22:55.848Z,25.92
2023-02-18T12:23:55.858Z,25.91
2023-02-18T12:24:55.858Z,25.91
2023-02-18T12:25:55.872Z,25.90
2023-02-18T12:26:55.888Z,25.89
2023-02-18T12:27:55.879Z,25.90
2023-02-18T12:28:55.885Z,25.89
2023-02-18T12:29:55.914Z,25.89
2023-02-18T12:30:55.930Z,25.89
2023-02-18T12:31:55.967Z,25.89
2023-02-18T12:32:55.960Z,25.88
2023-02-18T12:33:55.983Z,25.88
2023-02-18T12:34:55.972Z,25.87
2023-02-18T12:35:55.963Z,25.88
2023-02-18T12:36:56.120Z,25.88
2023-02-18T12:37:56.013Z,25.88
2023-02-18T12:38:56.008Z,25.88
2023-02-18T12:39:55.994Z,25.87
2023-02-18T12:40:56.050Z,25.87
2023-02-18T12:41:56.022Z,25.87
2023-02-18T12:42:56.013Z,25.88
2023-02-18T12:43:56.034Z,25.87
2023-02-18T12:44:56.062Z,25.89
2023-02-18T12:45:56.070Z,25.88
2023-02-18T12:46:56.063Z,25.89
2023-02-18T12:47:56.104Z,25.88
2023-02-18T12:48:56.095Z,25.89
2023-02-18T12:49:56.108Z,25.90
2023-02-18T12:50:56.142Z,25.89
2023-02-18T12:51:57.101Z,25.90
2023-02-18T12:52:56.107Z,25.89
2023-02-18T12:53:56.125Z,25.90
2023-02-18T12:54:56.137Z,25.90
2023-02-18T12:55:56.196Z,25.90
2023-02-18T12:56:56.190Z,25.90
2023-02-18T12:57:56.193Z,25.90
2023-02-18T12:58:56.216Z,25.90
2023-02-18T12:59:56.239Z,25.91
2023-02-18T13:00:56.268Z,25.91
2023-02-18T13:01:56.216Z,25.90
2023-02-18T13:02:56.277Z,25.89
2023-02-18T13:03:56.264Z,25.90
2023-02-18T13:04:56.278Z,25.89
2023-02-18T13:05:56.292Z,25.90
2023-02-18T13:06:56.295Z,25.91
2023-02-18T13:07:56.313Z,25.89
2023-02-18T13:08:56.305Z,25.89
2023-02-18T13:09:56.310Z,25.89
2023-02-18T13:10:56.316Z,25.89
2023-02-18T13:11:56.320Z,25.89
2023-02-18T13:12:56.346Z,25.90
2023-02-18T13:13:56.363Z,25.90
2023-02-18T13:14:56.353Z,25.90
2023-02-18T13:15:56.383Z,25.91
2023-02-18T13:16:56.380Z,25.91
2023-02-18T13:17:56.404Z,25.90
2023-02-18T13:18:56.403Z,25.90
2023-02-18T13:19:56.415Z,25.90
2023-02-18T13:20:56.445Z,25.91
2023-02-18T13:21:56.480Z,25.91
2023-02-18T13:22:56.493Z,25.92
2023-02-18T13:23:56.532Z,25.92
2023-02-18T13:24:56.836Z,25.91
2023-02-18T13:25:58.946Z,25.92
2023-02-18T13:26:56.538Z,25.91
2023-02-18T13:27:56.521Z,25.91
2023-02-18T13:28:56.481Z,25.92
2023-02-18T13:29:56.475Z,25.93
2023-02-18T13:30:56.612Z,25.93
2023-02-18T13:31:56.588Z,25.93
2023-02-18T13:32:56.471Z,25.93
2023-02-18T13:33:56.462Z,25.94
2023-02-18T13:34:56.400Z,25.93
2023-02-18T13:35:56.400Z,25.94
2023-02-18T13:36:56.376Z,25.94
2023-02-18T13:37:56.367Z,25.94
2023-02-18T13:38:56.373Z,25.94
2023-02-18T13:39:56.373Z,25.93
2023-02-18T13:40:56.324Z,25.94
2023-02-18T13:41:56.310Z,25.93
2023-02-18T13:42:56.338Z,25.94
2023-02-18T13:43:56.298Z,25.94
2023-02-18T13:44:56.309Z,25.94
2023-02-18T13:45:56.352Z,25.94
2023-02-18T13:46:56.254Z,25.94
2023-02-18T13:47:56.262Z,25.94
2023-02-18T13:48:56.218Z,25.94
2023-02-18T13:49:56.201Z,25.93
2023-02-18T13:50:56.187Z,25.93
2023-02-18T13:51:56.194Z,25.93
2023-02-18T13:52:56.153Z,25.92
2023-02-18T13:53:56.153Z,25.92
2023-02-18T13:54:56.139Z,25.93
2023-02-18T14:16:55.902Z,25.89
2023-02-18T14:17:55.887Z,25.89
2023-02-18T14:18:55.870Z,25.89
2023-02-18T14:19:55.884Z,25.89
2023-02-18T14:20:55.866Z,25.88
2023-02-18T14:21:55.840Z,25.88
2023-02-18T14:22:55.824Z,25.87
2023-02-18T14:23:55.831Z,25.87
2023-02-18T14:24:55.805Z,25.86
2023-02-18T14:25:55.794Z,25.86
2023-02-18T14:26:55.795Z,25.86
2023-02-18T14:27:55.828Z,25.85
2023-02-18T14:28:55.741Z,25.85
2023-02-18T14:29:55.731Z,25.84
2023-02-18T14:30:55.811Z,25.84
2023-02-18T14:31:55.802Z,25.83
2023-02-18T14:32:55.718Z,25.83
2023-02-18T14:33:55.710Z,25.82
2023-02-18T14:34:55.704Z,25.82
2023-02-18T14:35:55.704Z,25.81
2023-02-18T14:36:55.713Z,25.81
2023-02-18T14:37:55.692Z,25.81
2023-02-18T14:38:55.725Z,25.80
2023-02-18T14:39:55.727Z,25.80
2023-02-18T14:40:55.774Z,25.79
2023-02-18T14:41:55.979Z,25.79
2023-02-18T14:42:55.802Z,25.78
2023-02-18T14:43:55.847Z,25.78
2023-02-18T14:44:55.828Z,25.78
2023-02-18T14:45:55.873Z,25.77
2023-02-18T14:46:55.880Z,25.78
2023-02-18T14:47:55.901Z,25.77
2023-02-18T14:48:55.901Z,25.76
2023-02-18T14:49:55.895Z,25.75
2023-02-18T14:50:55.944Z,25.75
2023-02-18T14:51:55.949Z,25.75
2023-02-18T14:52:55.947Z,25.74
2023-02-18T14:53:56.014Z,25.74
2023-02-18T14:54:55.994Z,25.74
2023-02-18T14:55:56.018Z,25.73
2023-02-18T14:56:56.023Z,25.73
2023-02-18T14:57:56.041Z,25.74
2023-02-18T14:58:56.051Z,25.73
2023-02-18T14:59:56.075Z,25.72
2023-02-18T15:00:56.083Z,25.72
2023-02-18T15:01:56.089Z,25.71
2023-02-18T15:02:56.084Z,25.72
2023-02-18T15:03:56.126Z,25.71
2023-02-18T15:04:56.134Z,25.71
2023-02-18T15:05:56.136Z,25.71
2023-02-18T15:06:56.176Z,25.70
2023-02-18T15:07:56.193Z,25.70
2023-02-18T15:08:56.203Z,25.70
2023-02-18T15:09:56.223Z,25.69
2023-02-18T15:10:56.236Z,25.69
2023-02-18T15:11:56.266Z,25.69
2023-02-18T15:12:56.305Z,25.69
2023-02-18T15:13:56.291Z,25.69
2023-02-18T15:14:56.339Z,25.68
2023-02-18T15:15:56.383Z,25.68
2023-02-18T15:16:56.361Z,25.67
2023-02-18T15:17:56.402Z,25.68
2023-02-18T15:18:56.401Z,25.67
2023-02-18T15:19:56.405Z,25.67
2023-02-18T16:50:58.105Z,25.46
2023-02-18T16:52:58.278Z,25.45
2023-02-18T16:53:58.217Z,25.45
2023-02-18T16:54:58.242Z,25.45
2023-02-18T16:55:58.303Z,25.44
2023-02-18T16:56:58.326Z,25.43
2023-02-18T16:57:58.328Z,25.44
2023-02-18T16:58:58.380Z,25.43
2023-02-18T17:05:58.631Z,25.40
2023-02-18T17:06:58.599Z,25.40
2023-02-18T17:07:58.611Z,25.40
2023-02-18T17:08:58.693Z,25.40
2023-02-18T17:09:58.679Z,25.39
2023-02-18T17:10:58.695Z,25.39
2023-02-18T17:11:58.731Z,25.38
2023-02-18T17:12:58.787Z,25.38
2023-02-18T17:13:58.806Z,25.38
2023-02-18T17:14:58.838Z,25.38
2023-02-18T17:15:58.867Z,25.38
2023-02-18T17:16:58.922Z,25.37
2023-02-18T17:17:58.924Z,25.37
2023-02-18T17:18:58.908Z,25.37
2023-02-18T17:19:58.955Z,25.36
2023-02-18T17:20:58.985Z,25.36
2023-02-18T17:21:59.024Z,25.36
2023-02-18T17:22:59.019Z,25.36
2023-02-18T17:23:59.045Z,25.35
2023-02-18T17:24:59.062Z,25.34
2023-02-18T17:25:59.118Z,25.35
2023-02-18T17:26:59.124Z,25.34
2023-02-18T17:27:59.162Z,25.34
2023-02-18T17:28:59.192Z,25.34
2023-02-18T17:29:59.224Z,25.34
2023-02-18T17:30:59.274Z,25.33
2023-02-18T17:31:59.321Z,25.33
2023-02-18T17:33:00.995Z,25.32
2023-02-18T17:33:59.301Z,25.32
2023-02-18T17:34:59.249Z,25.33
2023-02-18T17:35:59.249Z,25.32
2023-02-18T17:36:59.309Z,25.31
2023-02-18T17:37:59.288Z,25.32
2023-02-18T17:39:01.544Z,25.31
2023-02-18T17:39:59.307Z,25.31
2023-02-18T17:40:59.244Z,25.30
2023-02-18T17:41:59.286Z,25.30
2023-02-18T17:42:59.262Z,25.30
2023-02-18T17:43:59.237Z,25.30
2023-02-18T17:44:59.243Z,25.30
2023-02-18T17:45:59.282Z,25.29
2023-02-18T17:46:59.233Z,25.29
2023-02-18T17:47:59.189Z,25.29
2023-02-18T17:48:59.203Z,25.28
2023-02-18T17:49:59.168Z,25.29
2023-02-18T17:50:59.209Z,25.28
2023-02-18T17:51:59.179Z,25.28
2023-02-18T17:52:59.184Z,25.28
2023-02-18T17:53:59.180Z,25.28
2023-02-18T17:54:59.181Z,25.27
2023-02-18T17:55:59.169Z,25.26
2023-02-18T17:56:59.158Z,25.27
2023-02-18T17:57:59.163Z,25.26
2023-02-18T17:58:59.159Z,25.26
2023-02-18T17:59:59.163Z,25.26
2023-02-18T18:00:59.193Z,25.25
2023-02-18T18:01:59.147Z,25.25
2023-02-18T18:02:59.169Z,25.25
2023-02-18T19:58:02.665Z,24.92
2023-02-18T19:59:02.753Z,24.93
2023-02-18T20:00:02.803Z,24.92
2023-02-18T20:01:02.826Z,24.93
2023-02-18T20:02:02.890Z,24.92
2023-02-18T20:03:02.975Z,24.91
2023-02-18T20:04:02.956Z,24.91
2023-02-18T20:05:02.995Z,24.91
2023-02-18T20:06:03.051Z,24.91
2023-02-18T20:07:03.098Z,24.91
2023-02-18T20:08:03.150Z,24.90
2023-02-18T20:09:03.185Z,24.89
2023-02-18T20:10:03.260Z,24.89
2023-02-18T20:11:03.277Z,24.89
2023-02-18T20:12:03.347Z,24.89
2023-02-18T20:13:03.388Z,24.89
2023-02-18T20:14:03.463Z,24.90
2023-02-18T20:15:03.514Z,24.90
2023-02-18T20:16:03.579Z,24.89
2023-02-18T20:17:03.599Z,24.88
2023-02-18T20:18:03.620Z,24.88
2023-02-18T20:19:03.682Z,24.88
2023-02-18T20:20:03.752Z,24.87
2023-02-18T20:21:03.785Z,24.87
2023-02-18T20:22:03.810Z,24.87
2023-02-18T20:23:03.858Z,24.87
2023-02-18T20:24:03.934Z,24.86
2023-02-18T20:25:03.960Z,24.86
2023-02-18T20:26:03.992Z,24.87
2023-02-18T20:27:04.031Z,24.86
2023-02-18T20:28:04.066Z,24.86
2023-02-18T20:29:04.151Z,24.85
2023-02-18T20:30:04.173Z,24.85
2023-02-18T20:31:04.450Z,24.86
2023-02-18T20:32:04.435Z,24.85
2023-02-18T20:33:04.328Z,24.85
2023-02-18T20:34:04.386Z,24.84
2023-02-18T20:35:04.427Z,24.84
2023-02-18T20:36:04.488Z,24.84
2023-02-18T20:37:04.512Z,24.83